createdAt,value
2022-08-21T00:03:05.139Z,101320.44
2022-08-21T00:06:14.026Z,101321.91
2022-08-21T00:09:20.029Z,101321.19
2022-08-21T00:12:25.339Z,101325.63
2022-08-21T00:15:35.553Z,101311.66
2022-08-21T00:18:40.979Z,101321.19
2022-08-21T00:21:46.374Z,101318.44
2022-08-21T00:24:51.790Z,101322.13
2022-08-21T00:27:57.922Z,101317.13
2022-08-21T00:31:05.374Z,101316.47
2022-08-21T00:34:13.850Z,101310.53
2022-08-21T00:37:19.645Z,101309.13
2022-08-21T00:40:28.879Z,101310.09
2022-08-21T00:43:38.409Z,101320.84
2022-08-21T00:46:45.714Z,101321.81
2022-08-21T00:49:51.229Z,101317.28
2022-08-21T00:52:56.939Z,101322.38
2022-08-21T00:56:03.317Z,101315.44
2022-08-21T00:59:11.810Z,101312.34
2022-08-21T01:02:18.933Z,101313.94
2022-08-21T01:05:24.201Z,101320.13
2022-08-21T01:08:31.216Z,101321.88
2022-08-21T01:11:37.102Z,101320.22
2022-08-21T01:14:43.819Z,101316.28
2022-08-21T01:17:52.057Z,101322.13
2022-08-21T01:21:12.651Z,101299.44
2022-08-21T01:24:18.665Z,101299.06
2022-08-21T01:27:24.196Z,101293.88
2022-08-21T01:30:31.081Z,101295.53
2022-08-21T01:33:36.434Z,101286.75
2022-08-21T01:36:43.330Z,101283.69
2022-08-21T01:39:48.624Z,101289.81
2022-08-21T01:42:54.427Z,101287.22
2022-08-21T01:45:59.661Z,101296.00
2022-08-21T01:49:05.219Z,101299.06
2022-08-21T01:52:13.371Z,101295.53
2022-08-21T01:55:20.278Z,101303.59
2022-08-21T01:58:25.367Z,101307.13
2022-08-21T02:01:31.359Z,101310.13
2022-08-21T02:04:36.604Z,101310.63
2022-08-21T02:07:52.414Z,101301.84
2022-08-21T02:10:57.542Z,101303.16
2022-08-21T02:14:02.681Z,101305.69
2022-08-21T02:17:09.489Z,101297.44
2022-08-21T02:20:26.645Z,101305.25
2022-08-21T02:23:33.761Z,101293.19
2022-08-21T02:26:39.055Z,101298.09
2022-08-21T02:29:44.082Z,101291.41
2022-08-21T02:32:49.479Z,101296.25
2022-08-21T02:35:55.337Z,101303.38
2022-08-21T02:39:01.742Z,101295.34
2022-08-21T02:42:07.567Z,101297.94
2022-08-21T02:45:14.682Z,101287.00
2022-08-21T02:48:24.200Z,101296.97
2022-08-21T02:51:29.281Z,101290.03
2022-08-21T02:54:36.166Z,101292.34
2022-08-21T02:57:41.414Z,101287.00
2022-08-21T03:00:49.407Z,101288.97
2022-08-21T03:03:54.640Z,101279.16
2022-08-21T03:06:59.867Z,101280.22
2022-08-21T03:10:07.825Z,101281.19
2022-08-21T03:13:15.164Z,101285.63
2022-08-21T03:16:21.679Z,101285.03
2022-08-21T03:19:26.954Z,101293.09
2022-08-21T03:22:33.106Z,101295.38
2022-08-21T03:25:41.001Z,101297.44
2022-08-21T03:28:46.415Z,101294.78
2022-08-21T03:31:51.595Z,101296.16
2022-08-21T03:34:56.873Z,101285.25
2022-08-21T03:38:02.099Z,101289.88
2022-08-21T03:41:09.760Z,101293.63
2022-08-21T03:44:15.042Z,101292.72
2022-08-21T03:47:20.571Z,101290.97
2022-08-21T03:50:27.465Z,101296.63
2022-08-21T03:53:32.543Z,101308.28
2022-08-21T03:56:40.549Z,101302.84
2022-08-21T03:59:45.920Z,101302.09
2022-08-21T04:02:51.460Z,101303.63
2022-08-21T04:05:56.541Z,101309.31
2022-08-21T04:09:02.586Z,101300.50
2022-08-21T04:12:10.378Z,101311.09
2022-08-21T04:15:15.734Z,101315.13
2022-08-21T04:18:21.007Z,101313.75
2022-08-21T04:21:26.393Z,101313.28
2022-08-21T04:24:31.555Z,101316.25
2022-08-21T04:27:37.978Z,101314.75
2022-08-21T04:30:43.209Z,101314.28
2022-08-21T04:33:48.690Z,101315.34
2022-08-21T04:36:54.226Z,101309.19
2022-08-21T04:39:59.726Z,101312.59
2022-08-21T04:43:09.342Z,101309.31
2022-08-21T04:46:14.611Z,101303.41
2022-08-21T04:49:19.735Z,101305.69
2022-08-21T04:52:25.251Z,101297.81
2022-08-21T04:55:30.667Z,101289.78
2022-08-21T04:58:38.639Z,101286.63
2022-08-21T05:01:45.709Z,101288.78
2022-08-21T05:04:53.424Z,101285.94
2022-08-21T05:07:59.441Z,101285.78
2022-08-21T05:11:05.451Z,101289.97
2022-08-21T05:14:13.534Z,101289.44
2022-08-21T05:17:18.788Z,101290.59
2022-08-21T05:20:23.858Z,101290.50
2022-08-21T05:23:28.961Z,101298.81
2022-08-21T05:26:45.269Z,101288.38
2022-08-21T05:29:52.586Z,101280.06
2022-08-21T05:33:00.238Z,101280.16
2022-08-21T05:36:06.685Z,101283.41
2022-08-21T05:39:12.510Z,101280.72
2022-08-21T05:42:17.723Z,101286.69
2022-08-21T05:45:41.731Z,101292.81
2022-08-21T05:48:49.547Z,101284.41
2022-08-21T05:51:54.975Z,101286.63
2022-08-21T05:55:00.040Z,101281.75
2022-08-21T05:58:06.121Z,101273.88
2022-08-21T06:01:13.346Z,101275.38
2022-08-21T06:04:18.799Z,101271.19
2022-08-21T06:07:23.806Z,101266.78
2022-08-21T06:10:28.816Z,101258.75
2022-08-21T06:13:35.398Z,101263.63
2022-08-21T06:16:41.958Z,101262.34
2022-08-21T06:19:47.090Z,101270.66
2022-08-21T06:22:52.154Z,101258.16
2022-08-21T06:25:57.530Z,101266.88
2022-08-21T06:29:02.719Z,101261.09
2022-08-21T06:32:12.438Z,101267.81
2022-08-21T06:35:17.526Z,101264.69
2022-08-21T06:38:22.579Z,101266.78
2022-08-21T06:41:28.518Z,101268.13
2022-08-21T06:44:33.853Z,101265.31
2022-08-21T06:47:40.411Z,101263.22
2022-08-21T06:50:45.803Z,101263.09
2022-08-21T06:53:51.710Z,101268.31
2022-08-21T06:56:56.896Z,101267.75
2022-08-21T07:00:01.953Z,101259.78
2022-08-21T07:03:09.603Z,101260.97
2022-08-21T07:06:14.889Z,101254.78
2022-08-21T07:09:24.422Z,101257.03
2022-08-21T07:12:30.086Z,101259.19
2022-08-21T07:15:35.232Z,101257.28
2022-08-21T07:18:41.758Z,101257.19
2022-08-21T07:21:46.803Z,101252.88
2022-08-21T07:24:51.872Z,101253.78
2022-08-21T07:27:57.539Z,101257.13
2022-08-21T07:31:05.516Z,101244.16
2022-08-21T07:34:13.350Z,101253.13
2022-08-21T07:37:18.490Z,101247.84
2022-08-21T07:40:25.427Z,101252.69
2022-08-21T07:43:31.542Z,101258.88
2022-08-21T07:46:36.865Z,101251.09
2022-08-21T07:49:43.305Z,101259.16
2022-08-21T07:52:48.482Z,101249.44
2022-08-21T07:55:54.009Z,101253.19
2022-08-21T07:58:59.329Z,101256.13
2022-08-21T08:02:04.750Z,101251.69
2022-08-21T08:05:13.726Z,101254.38
2022-08-21T08:08:19.226Z,101241.00
2022-08-21T08:11:24.275Z,101243.59
2022-08-21T08:14:31.441Z,101241.34
2022-08-21T08:17:37.156Z,101236.25
2022-08-21T08:20:43.855Z,101231.53
2022-08-21T08:23:49.629Z,101225.94
2022-08-21T08:26:55.049Z,101228.88
2022-08-21T08:30:00.419Z,101224.31
2022-08-21T08:33:05.941Z,101227.47
2022-08-21T08:36:18.386Z,101223.31
2022-08-21T08:39:27.045Z,101225.31
2022-08-21T08:42:37.820Z,101222.63
2022-08-21T08:45:48.809Z,101222.38
2022-08-21T08:49:03.587Z,101229.03
2022-08-21T08:52:25.337Z,101232.47
2022-08-21T08:55:35.514Z,101237.66
2022-08-21T08:58:44.627Z,101246.34
2022-08-21T09:01:50.116Z,101234.09
2022-08-21T09:04:55.350Z,101233.41
2022-08-21T09:08:23.221Z,101231.13
2022-08-21T09:11:34.299Z,101236.97
2022-08-21T09:14:53.149Z,101238.50
2022-08-21T09:18:23.148Z,101233.13
2022-08-21T09:21:38.335Z,101234.22
2022-08-21T09:24:52.417Z,101237.94
2022-08-21T09:27:57.494Z,101240.06
2022-08-21T09:31:04.183Z,101237.66
2022-08-21T09:34:14.685Z,101240.75
2022-08-21T09:37:20.850Z,101243.22
2022-08-21T09:40:40.844Z,101241.78
2022-08-21T09:43:55.134Z,101245.53
2022-08-21T09:47:00.643Z,101244.50
2022-08-21T09:50:13.366Z,101230.94
2022-08-21T09:53:21.899Z,101236.16
2022-08-21T09:56:51.895Z,101234.38
2022-08-21T09:59:57.830Z,101240.75
2022-08-21T10:03:16.175Z,101232.59
2022-08-21T10:06:28.110Z,101239.47
2022-08-21T10:09:34.601Z,101245.41
2022-08-21T10:12:51.125Z,101243.00
2022-08-21T10:16:11.080Z,101244.47
2022-08-21T10:19:24.450Z,101244.03
2022-08-21T10:22:40.650Z,101245.13
2022-08-21T10:26:13.007Z,101245.13
2022-08-21T10:29:47.582Z,101247.53
2022-08-21T10:33:04.602Z,101244.38
2022-08-21T10:36:16.816Z,101242.41
2022-08-21T10:39:36.110Z,101232.53
2022-08-21T10:42:51.678Z,101231.19
2022-08-21T10:46:07.066Z,101226.16
2022-08-21T10:49:24.700Z,101234.72
2022-08-21T10:52:53.402Z,101230.53
2022-08-21T10:56:04.881Z,101230.75
2022-08-21T10:59:26.735Z,101226.81
2022-08-21T11:02:39.909Z,101228.88
2022-08-21T11:05:50.945Z,101235.97
2022-08-21T11:09:00.751Z,101217.22
2022-08-21T11:12:22.333Z,101237.53
2022-08-21T11:15:42.262Z,101222.00
2022-08-21T11:18:55.232Z,101226.41
2022-08-21T11:22:13.522Z,101223.69
2022-08-21T11:25:25.103Z,101227.00
2022-08-21T11:28:45.991Z,101225.44
2022-08-21T11:32:32.059Z,101222.31
2022-08-21T11:35:48.673Z,101219.91
2022-08-21T11:39:02.554Z,101227.41
2022-08-21T11:42:21.900Z,101231.78
2022-08-21T11:45:34.800Z,101243.16
2022-08-21T11:48:47.390Z,101240.31
2022-08-21T11:51:58.731Z,101240.72
2022-08-21T11:55:08.972Z,101245.75
2022-08-21T11:58:22.400Z,101245.56
2022-08-21T12:01:34.253Z,101247.00
2022-08-21T12:04:48.718Z,101245.31
2022-08-21T12:08:07.851Z,101241.78
2022-08-21T12:11:28.091Z,101244.06
2022-08-21T12:14:43.166Z,101235.38
2022-08-21T12:18:02.928Z,101229.44
2022-08-21T12:21:27.946Z,101233.50
2022-08-21T12:24:40.509Z,101223.50
2022-08-21T12:27:49.049Z,101221.97
2022-08-21T12:30:58.008Z,101225.06
2022-08-21T12:34:04.925Z,101231.47
2022-08-21T12:37:24.291Z,101225.78
2022-08-21T12:40:39.582Z,101229.81
2022-08-21T12:43:47.668Z,101228.97
2022-08-21T12:47:00.894Z,101227.53
2022-08-21T12:50:09.911Z,101224.53
2022-08-21T12:53:28.366Z,101223.78
2022-08-21T12:56:37.135Z,101229.81
2022-08-21T12:59:42.551Z,101235.41
2022-08-21T13:02:50.580Z,101220.44
2022-08-21T13:05:55.894Z,101225.06
2022-08-21T13:09:09.201Z,101236.22
2022-08-21T13:12:17.069Z,101223.44
2022-08-21T13:15:31.991Z,101216.75
2022-08-21T13:18:55.057Z,101220.28
2022-08-21T13:22:02.490Z,101205.41
2022-08-21T13:25:32.478Z,101221.41
2022-08-21T13:28:39.419Z,101214.19
2022-08-21T13:31:50.830Z,101213.53
2022-08-21T13:34:56.014Z,101219.47
2022-08-21T13:38:01.777Z,101215.31
2022-08-21T13:41:11.522Z,101212.59
2022-08-21T13:44:21.178Z,101219.13
2022-08-21T13:47:26.561Z,101211.03
2022-08-21T13:50:31.992Z,101221.00
2022-08-21T13:53:46.737Z,101212.72
2022-08-21T13:56:52.011Z,101207.13
2022-08-21T14:03:36.296Z,101201.38
2022-08-21T14:06:41.547Z,101204.84
2022-08-21T14:09:47.712Z,101209.69
2022-08-21T14:12:58.260Z,101205.03
2022-08-21T14:16:05.441Z,101201.50
2022-08-21T14:19:20.152Z,101197.81
2022-08-21T14:22:39.502Z,101185.97
2022-08-21T14:25:46.438Z,101185.34
2022-08-21T14:28:51.686Z,101180.88
2022-08-21T14:31:59.913Z,101184.91
2022-08-21T14:35:07.530Z,101184.44
2022-08-21T14:38:18.814Z,101180.00
2022-08-21T14:41:27.098Z,101169.84
2022-08-21T14:44:32.981Z,101175.88
2022-08-21T14:47:38.443Z,101180.59
2022-08-21T14:50:45.078Z,101178.59
2022-08-21T14:53:50.620Z,101182.19
2022-08-21T14:56:56.288Z,101173.03
2022-08-21T15:00:02.370Z,101168.75
2022-08-21T15:03:08.132Z,101171.25
2022-08-21T15:06:14.736Z,101170.91
2022-08-21T15:09:20.282Z,101173.41
2022-08-21T15:12:26.074Z,101163.44
2022-08-21T15:15:31.770Z,101159.53
2022-08-21T15:18:36.866Z,101165.44
2022-08-21T15:21:43.386Z,101165.22
2022-08-21T15:24:48.610Z,101158.34
2022-08-21T15:27:53.934Z,101156.66
2022-08-21T15:30:59.399Z,101152.88
2022-08-21T15:34:04.937Z,101163.06
2022-08-21T15:37:11.914Z,101165.31
2022-08-21T15:40:18.090Z,101165.09
2022-08-21T15:43:29.838Z,101164.75
2022-08-21T15:46:36.104Z,101164.34
2022-08-21T15:49:43.666Z,101165.84
2022-08-21T15:52:50.804Z,101162.56
2022-08-21T15:55:56.430Z,101167.56
2022-08-21T15:59:04.066Z,101164.22
2022-08-21T16:02:15.027Z,101162.69
2022-08-21T16:05:21.453Z,101163.63
2022-08-21T16:08:27.910Z,101167.06
2022-08-21T16:11:33.138Z,101172.28
2022-08-21T16:14:38.519Z,101165.16
2022-08-21T16:17:48.665Z,101166.44
2022-08-21T16:20:53.944Z,101155.28
2022-08-21T16:24:00.546Z,101173.41
2022-08-21T16:27:08.040Z,101162.06
2022-08-21T16:30:15.478Z,101173.41
2022-08-21T16:33:27.211Z,101165.84
2022-08-21T16:36:32.495Z,101172.13
2022-08-21T16:39:39.304Z,101167.53
2022-08-21T16:42:45.155Z,101174.00
2022-08-21T16:45:50.327Z,101166.28
2022-08-21T16:48:55.627Z,101165.97
2022-08-21T16:52:00.663Z,101165.88
2022-08-21T16:55:09.136Z,101166.91
2022-08-21T16:58:22.455Z,101167.38
2022-08-21T17:01:31.809Z,101166.13
2022-08-21T17:04:36.850Z,101169.47
2022-08-21T17:07:43.225Z,101167.53
2022-08-21T17:10:51.160Z,101172.63
2022-08-21T17:13:57.935Z,101175.44
2022-08-21T17:17:03.659Z,101184.31
2022-08-21T17:20:10.929Z,101180.31
2022-08-21T17:23:17.384Z,101174.38
2022-08-21T17:26:24.749Z,101179.00
2022-08-21T17:29:32.562Z,101170.94
2022-08-21T17:32:38.299Z,101190.56
2022-08-21T17:35:45.431Z,101192.63
2022-08-21T17:38:50.881Z,101192.56
2022-08-21T17:41:58.455Z,101191.09
2022-08-21T17:45:04.512Z,101196.00
2022-08-21T17:48:10.426Z,101192.03
2022-08-21T17:51:15.853Z,101198.56
2022-08-21T17:54:20.969Z,101192.69
2022-08-21T17:57:28.147Z,101192.16
2022-08-21T18:00:33.783Z,101207.84
2022-08-21T18:03:39.027Z,101224.81
2022-08-21T18:06:45.428Z,101226.56
2022-08-21T18:09:50.745Z,101218.28
2022-08-21T18:12:59.628Z,101223.88
2022-08-21T18:16:06.121Z,101228.13
2022-08-21T18:19:16.052Z,101231.78
2022-08-21T18:22:21.337Z,101233.75
2022-08-21T18:25:26.489Z,101233.28
2022-08-21T18:28:33.339Z,101246.50
2022-08-21T18:31:40.553Z,101247.53
2022-08-21T18:34:46.037Z,101238.50
2022-08-21T18:37:51.326Z,101243.78
2022-08-21T18:40:57.106Z,101232.84
2022-08-21T18:44:03.619Z,101234.38
2022-08-21T18:47:14.386Z,101242.69
2022-08-21T18:50:28.790Z,101237.91
2022-08-21T18:53:34.066Z,101247.69
2022-08-21T18:56:42.150Z,101238.41
2022-08-21T18:59:48.864Z,101234.03
2022-08-21T19:02:54.429Z,101231.75
2022-08-21T19:06:00.023Z,101235.16
2022-08-21T19:09:06.235Z,101240.09
2022-08-21T19:12:23.645Z,101224.59
2022-08-21T19:15:36.338Z,101229.03
2022-08-21T19:18:42.860Z,101231.25
2022-08-21T19:21:49.484Z,101234.25
2022-08-21T19:24:55.097Z,101243.41
2022-08-21T19:28:00.385Z,101231.75
2022-08-21T19:31:11.929Z,101244.28
2022-08-21T19:34:25.286Z,101240.84
2022-08-21T19:37:30.717Z,101239.34
2022-08-21T19:40:36.713Z,101253.13
2022-08-21T19:43:44.995Z,101230.13
2022-08-21T19:46:54.514Z,101236.88
2022-08-21T19:50:03.198Z,101242.34
2022-08-21T19:53:12.003Z,101251.06
2022-08-21T19:56:22.508Z,101242.53
2022-08-21T19:59:28.233Z,101243.75
2022-08-21T20:02:35.752Z,101245.81
2022-08-21T20:05:41.524Z,101239.22
2022-08-21T20:08:49.513Z,101241.16
2022-08-21T20:11:57.534Z,101232.63
2022-08-21T20:15:03.102Z,101240.25
2022-08-21T20:18:10.373Z,101247.78
2022-08-21T20:21:17.618Z,101249.44
2022-08-21T20:24:22.662Z,101250.53
2022-08-21T20:27:32.509Z,101251.38
2022-08-21T20:30:46.626Z,101257.69
2022-08-21T20:33:54.516Z,101255.81
2022-08-21T20:40:29.209Z,101273.59
2022-08-21T20:43:39.550Z,101272.97
2022-08-21T20:46:47.943Z,101279.41
2022-08-21T20:50:04.200Z,101289.75
2022-08-21T20:53:27.094Z,101286.84
2022-08-21T20:56:54.163Z,101280.59
2022-08-21T21:00:02.683Z,101280.06
2022-08-21T21:03:13.892Z,101286.25
2022-08-21T21:06:25.501Z,101282.91
2022-08-21T21:09:40.280Z,101291.63
2022-08-21T21:12:53.309Z,101271.78
2022-08-21T21:16:04.731Z,101278.91
2022-08-21T21:19:15.086Z,101273.94
2022-08-21T21:22:32.393Z,101281.50
2022-08-21T21:25:44.188Z,101288.44
2022-08-21T21:28:55.935Z,101280.88
2022-08-21T21:32:01.943Z,101282.22
2022-08-21T21:35:09.365Z,101270.19
2022-08-21T21:38:23.618Z,101284.44
2022-08-21T21:41:36.677Z,101278.13
2022-08-21T21:45:07.007Z,101280.81
2022-08-21T21:48:23.793Z,101277.38
2022-08-21T21:51:51.661Z,101277.84
2022-08-21T21:55:18.555Z,101277.72
2022-08-21T21:58:46.382Z,101286.59
2022-08-21T22:01:57.576Z,101277.19
2022-08-21T22:05:09.786Z,101282.81
2022-08-21T22:12:15.313Z,101272.16
2022-08-21T22:15:27.944Z,101281.03
2022-08-21T22:18:54.962Z,101275.22
2022-08-21T22:22:06.573Z,101266.94
2022-08-21T22:25:22.228Z,101285.16
2022-08-21T22:28:31.278Z,101281.28
2022-08-21T22:35:16.462Z,101285.34
2022-08-21T22:38:31.762Z,101276.63
2022-08-21T22:41:42.321Z,101275.56
2022-08-21T22:44:56.157Z,101287.63
2022-08-21T22:48:11.296Z,101281.75
2022-08-21T22:51:36.068Z,101282.44
2022-08-21T22:54:45.317Z,101279.84
2022-08-21T22:58:04.360Z,101284.94
2022-08-21T23:01:38.050Z,101289.44
2022-08-21T23:04:49.613Z,101288.69
2022-08-21T23:07:55.462Z,101292.28
2022-08-21T23:11:13.983Z,101287.28
2022-08-21T23:14:19.252Z,101287.28
2022-08-21T23:17:45.515Z,101300.13
2022-08-21T23:21:02.734Z,101290.53
2022-08-21T23:24:35.543Z,101302.66
2022-08-21T23:27:56.150Z,101303.84
2022-08-21T23:31:13.407Z,101299.97
2022-08-21T23:34:29.187Z,101305.84
2022-08-21T23:37:58.315Z,101304.31
2022-08-21T23:41:11.619Z,101313.00
2022-08-21T23:44:37.571Z,101303.41
2022-08-21T23:47:58.584Z,101320.03
2022-08-21T23:51:12.341Z,101316.72
2022-08-21T23:54:24.566Z,101316.19
2022-08-21T23:57:46.403Z,101327.72
